Ferndale, Washington
Current Conditions -  °F | °C
As of 3:53 AM on Wednesday 26 Nov 2014 (Local Time) from KBLI Reporting Station
Overcast Overcast  
Wind Chill: 42°   Ceiling: 2200
Heat Index: 42°   Visibility: 10mi
Dew Point: 40°   Wind: 0mph
Humidity: 92%   Direction: NA
Pressure: 30.09"   Gusts: NA
Location:  48.85°N, 122.59°W
Report Text: KBLI 261153Z AUTO 00000KT 10SM FEW003 SCT007 OVC022 06/04 A3009 RMK AO2 SLP198 60005 70096 T00560044 10056 20050 58009
Loading
Personal Weather Stations






























Interactive Weather Map New forecast layout! Learn more

10-Day Weather Forecast

Advertisements
Track Severe Weather on mobile